createdAt,value
2022-10-14T00:00:17.030Z,56.59
2022-10-14T00:01:17.024Z,55.65
2022-10-14T00:02:17.089Z,52.24
2022-10-14T00:03:17.001Z,58.99
2022-10-14T00:04:17.007Z,47.59
2022-10-14T00:05:16.987Z,60.22
2022-10-14T00:06:17.745Z,56.76
2022-10-14T00:07:16.985Z,54.99
2022-10-14T00:08:16.978Z,51.41
2022-10-14T00:09:16.967Z,45.95
2022-10-14T00:10:16.956Z,51.29
2022-10-14T00:11:16.957Z,57.70
2022-10-14T00:12:16.931Z,53.56
2022-10-14T00:13:16.925Z,52.87
2022-10-14T00:14:16.921Z,54.36
2022-10-14T00:15:16.907Z,56.07
2022-10-14T00:16:16.919Z,53.24
2022-10-14T00:17:16.896Z,59.72
2022-10-14T00:18:16.884Z,45.51
2022-10-14T00:19:16.874Z,56.73
2022-10-14T00:20:16.887Z,55.18
2022-10-14T00:21:16.875Z,54.11
2022-10-14T00:22:16.859Z,54.24
2022-10-14T00:23:16.853Z,53.69
2022-10-14T00:24:16.838Z,53.04
2022-10-14T00:25:16.850Z,53.28
2022-10-14T00:26:16.825Z,51.53
2022-10-14T00:27:16.818Z,52.04
2022-10-14T00:28:16.824Z,48.85
2022-10-14T00:31:16.499Z,51.29
2022-10-14T00:32:16.499Z,44.84
2022-10-14T00:33:16.485Z,54.29
2022-10-14T00:34:16.474Z,55.37
2022-10-14T00:35:16.476Z,50.53
2022-10-14T00:36:16.457Z,52.62
2022-10-14T00:37:16.460Z,56.20
2022-10-14T00:38:16.440Z,50.47
2022-10-14T00:39:16.435Z,53.40
2022-10-14T00:40:16.426Z,49.61
2022-10-14T00:41:17.520Z,58.33
2022-10-14T00:42:17.508Z,59.66
2022-10-14T00:43:17.494Z,53.84
2022-10-14T00:44:17.488Z,51.73
2022-10-14T00:45:17.478Z,54.87
2022-10-14T00:46:17.480Z,54.38
2022-10-14T00:47:17.469Z,55.30
2022-10-14T00:48:17.451Z,41.73
2022-10-14T00:49:17.448Z,50.63
2022-10-14T00:50:17.452Z,55.79
2022-10-14T00:51:17.435Z,50.08
2022-10-14T00:52:17.419Z,53.12
2022-10-14T00:53:17.425Z,53.94
2022-10-14T00:54:17.407Z,58.64
2022-10-14T00:55:17.400Z,56.90
2022-10-14T00:56:17.392Z,48.67
2022-10-14T00:57:17.383Z,57.70
2022-10-14T00:58:17.386Z,45.47
2022-10-14T00:59:17.365Z,55.29
2022-10-14T01:00:17.383Z,53.22
2022-10-14T01:01:17.442Z,48.99
2022-10-14T01:02:17.347Z,62.11
2022-10-14T01:03:17.333Z,54.25
2022-10-14T01:04:17.327Z,51.27
2022-10-14T01:05:17.315Z,42.17
2022-10-14T01:06:17.313Z,51.21
2022-10-14T01:07:17.306Z,60.23
2022-10-14T01:08:17.297Z,50.23
2022-10-14T01:09:17.298Z,43.73
2022-10-14T01:10:17.285Z,67.36
2022-10-14T01:11:17.271Z,52.86
2022-10-14T01:12:28.600Z,40.37
2022-10-14T01:13:19.251Z,54.95
2022-10-14T01:14:17.487Z,41.81
2022-10-14T01:15:17.232Z,56.67
2022-10-14T01:16:17.234Z,45.55
2022-10-14T01:17:17.233Z,53.07
2022-10-14T01:18:17.206Z,60.77
2022-10-14T01:19:17.205Z,49.66
2022-10-14T01:20:17.187Z,51.72
2022-10-14T01:21:17.180Z,50.93
2022-10-14T01:22:22.064Z,47.47
2022-10-14T01:23:19.167Z,53.88
2022-10-14T01:24:17.154Z,47.40
2022-10-14T01:25:17.150Z,49.06
2022-10-14T01:26:17.979Z,49.79
2022-10-14T01:27:17.134Z,44.58
2022-10-14T01:28:17.149Z,42.29
2022-10-14T01:29:17.119Z,42.20
2022-10-14T01:30:17.117Z,54.30
2022-10-14T01:31:17.840Z,54.07
2022-10-14T01:32:17.090Z,54.37
2022-10-14T01:33:17.083Z,58.73
2022-10-14T01:34:17.078Z,60.67
2022-10-14T01:35:17.069Z,54.67
2022-10-14T01:36:17.057Z,43.85
2022-10-14T01:37:17.044Z,41.40
2022-10-14T01:38:17.059Z,56.02
2022-10-14T01:39:17.046Z,61.05
2022-10-14T01:40:17.882Z,52.73
2022-10-14T01:41:17.027Z,57.74
2022-10-14T01:42:17.005Z,52.32
2022-10-14T01:43:17.002Z,46.06
2022-10-14T01:44:16.995Z,51.16
2022-10-14T01:45:16.978Z,54.72
2022-10-14T01:46:16.993Z,56.04
2022-10-14T01:47:16.962Z,60.81
2022-10-14T01:48:16.956Z,60.11
2022-10-14T01:49:16.955Z,60.42
2022-10-14T01:50:16.935Z,59.53
2022-10-14T01:51:16.947Z,59.40
2022-10-14T01:52:16.923Z,52.45
2022-10-14T01:53:16.924Z,57.65
2022-10-14T01:54:16.928Z,45.27
2022-10-14T01:55:16.900Z,61.45
2022-10-14T01:56:16.915Z,50.22
2022-10-14T01:57:16.944Z,51.87
2022-10-14T01:58:16.877Z,50.50
2022-10-14T01:59:16.865Z,41.28
2022-10-14T02:00:16.853Z,54.74
2022-10-14T02:01:16.916Z,54.39
2022-10-14T02:02:16.847Z,48.18
2022-10-14T02:03:16.833Z,56.29
2022-10-14T02:04:16.827Z,51.00
2022-10-14T02:05:16.821Z,51.85
2022-10-14T02:06:16.811Z,47.06
2022-10-14T02:07:16.815Z,56.29
2022-10-14T02:08:16.797Z,47.01
2022-10-14T02:09:16.798Z,53.95
2022-10-14T02:10:16.783Z,54.47
2022-10-14T02:11:16.803Z,55.87
2022-10-14T02:12:17.395Z,60.69
2022-10-14T02:13:16.754Z,54.01
2022-10-14T02:14:16.746Z,53.86
2022-10-14T02:15:16.735Z,52.89
2022-10-14T02:16:16.740Z,49.37
2022-10-14T02:17:16.723Z,54.52
2022-10-14T02:18:16.718Z,42.64
2022-10-14T02:19:16.711Z,46.58
2022-10-14T02:20:16.721Z,46.40
2022-10-14T02:21:16.700Z,55.35
2022-10-14T02:22:16.687Z,52.14
2022-10-14T02:23:16.674Z,58.32
2022-10-14T02:24:16.664Z,50.25
2022-10-14T02:25:17.475Z,54.31
2022-10-14T02:26:16.653Z,55.69
2022-10-14T02:27:16.636Z,55.47
2022-10-14T02:28:16.690Z,50.87
2022-10-14T02:29:16.628Z,51.66
2022-10-14T02:30:16.619Z,53.96
2022-10-14T02:31:16.605Z,57.25
2022-10-14T02:32:17.476Z,54.27
2022-10-14T02:33:16.584Z,53.26
2022-10-14T02:34:17.483Z,48.85
2022-10-14T02:35:16.597Z,46.87
2022-10-14T02:36:16.562Z,54.18
2022-10-14T02:37:16.569Z,46.75
2022-10-14T02:38:16.547Z,56.85
2022-10-14T02:39:16.546Z,56.80
2022-10-14T02:40:16.536Z,55.72
2022-10-14T02:41:16.511Z,55.28
2022-10-14T02:42:17.510Z,59.19
2022-10-14T02:43:16.505Z,54.51
2022-10-14T02:44:16.495Z,59.73
2022-10-14T02:45:16.497Z,60.09
2022-10-14T02:46:16.478Z,45.60
2022-10-14T02:47:16.476Z,54.15
2022-10-14T02:48:16.471Z,61.45
2022-10-14T02:49:16.460Z,49.70
2022-10-14T02:50:16.466Z,55.36
2022-10-14T02:51:16.449Z,55.97
2022-10-14T02:52:16.440Z,52.48
2022-10-14T02:53:16.438Z,61.23
2022-10-14T02:54:16.415Z,55.53
2022-10-14T02:55:16.423Z,58.68
2022-10-14T02:56:16.395Z,60.06
2022-10-14T02:57:16.395Z,54.01
2022-10-14T02:58:16.394Z,58.77
2022-10-14T02:59:16.375Z,56.73
2022-10-14T03:00:16.501Z,49.48
2022-10-14T03:01:16.371Z,54.56
2022-10-14T03:02:16.420Z,62.96
2022-10-14T03:03:16.344Z,54.32
2022-10-14T03:04:16.332Z,57.87
2022-10-14T03:05:16.323Z,59.51
2022-10-14T03:06:16.313Z,59.63
2022-10-14T03:07:16.303Z,60.09
2022-10-14T03:08:16.310Z,64.00
2022-10-14T03:09:16.310Z,57.97
2022-10-14T03:10:16.293Z,58.07
2022-10-14T03:11:16.283Z,63.66
2022-10-14T03:12:16.265Z,62.05
2022-10-14T03:13:16.270Z,57.50
2022-10-14T03:14:16.259Z,56.39
2022-10-14T03:15:16.252Z,57.90
2022-10-14T03:16:16.239Z,57.16
2022-10-14T03:17:16.243Z,59.47
2022-10-14T03:18:16.222Z,62.82
2022-10-14T03:19:16.212Z,60.77
2022-10-14T03:20:16.199Z,62.18
2022-10-14T03:21:16.191Z,62.44
2022-10-14T03:22:16.184Z,59.13
2022-10-14T03:23:16.191Z,61.08
2022-10-14T03:24:16.168Z,60.26
2022-10-14T03:25:16.161Z,64.34
2022-10-14T03:26:16.161Z,61.28
2022-10-14T03:27:16.158Z,57.71
2022-10-14T03:28:16.164Z,61.91
2022-10-14T03:29:16.146Z,61.36
2022-10-14T03:30:16.134Z,62.35
2022-10-14T03:31:16.118Z,58.85
2022-10-14T03:32:16.119Z,58.69
2022-10-14T03:33:18.623Z,59.88
2022-10-14T03:34:16.106Z,59.37
2022-10-14T03:35:16.087Z,61.98
2022-10-14T03:36:16.084Z,60.69
2022-10-14T03:37:16.080Z,65.56
2022-10-14T03:38:16.060Z,64.63
2022-10-14T03:39:16.063Z,63.14
2022-10-14T03:40:16.060Z,62.42
2022-10-14T03:41:16.992Z,59.56
2022-10-14T03:42:16.030Z,60.55
2022-10-14T03:43:16.031Z,60.33
2022-10-14T03:44:16.020Z,64.03
2022-10-14T03:45:16.015Z,64.21
2022-10-14T03:46:15.997Z,62.18
2022-10-14T03:47:16.009Z,59.67
2022-10-14T03:48:15.992Z,61.58
2022-10-14T03:49:15.986Z,62.30
2022-10-14T03:50:15.973Z,64.71
2022-10-14T03:51:15.965Z,63.53
2022-10-14T03:52:15.964Z,62.22
2022-10-14T03:53:15.944Z,57.49
2022-10-14T03:54:16.032Z,59.92
2022-10-14T03:55:15.937Z,61.89
2022-10-14T03:56:15.928Z,60.86
2022-10-14T03:57:15.944Z,61.30
2022-10-14T03:58:15.911Z,58.80
2022-10-14T03:59:15.904Z,53.47
2022-10-14T04:00:15.896Z,60.12
2022-10-14T04:01:15.888Z,65.18
2022-10-14T04:02:15.873Z,60.44
2022-10-14T04:03:17.469Z,61.26
2022-10-14T04:04:15.871Z,61.65
2022-10-14T04:05:15.884Z,63.70
2022-10-14T04:06:15.843Z,62.59
2022-10-14T04:07:15.842Z,59.56
2022-10-14T04:08:15.846Z,61.54
2022-10-14T04:09:15.833Z,63.86
2022-10-14T04:10:15.828Z,60.41
2022-10-14T04:11:15.819Z,56.16
2022-10-14T04:12:15.807Z,62.93
2022-10-14T04:13:15.792Z,62.32
2022-10-14T04:14:15.790Z,64.49
2022-10-14T04:15:15.774Z,60.79
2022-10-14T04:16:15.764Z,65.39
2022-10-14T04:17:15.771Z,60.48
2022-10-14T04:18:15.751Z,62.87
2022-10-14T04:19:15.758Z,62.92
2022-10-14T04:20:15.767Z,64.67
2022-10-14T04:21:15.732Z,66.63
2022-10-14T04:22:15.720Z,60.83
2022-10-14T04:23:15.707Z,65.61
2022-10-14T04:24:15.710Z,64.69
2022-10-14T04:25:15.714Z,65.04
2022-10-14T04:26:15.698Z,65.59
2022-10-14T04:27:15.681Z,64.46
2022-10-14T04:28:15.733Z,66.01
2022-10-14T04:29:15.660Z,64.62
2022-10-14T04:30:15.661Z,63.25
2022-10-14T04:31:15.655Z,64.84
2022-10-14T04:32:15.634Z,64.26
2022-10-14T04:33:15.638Z,66.13
2022-10-14T04:34:15.638Z,64.67
2022-10-14T04:35:15.623Z,63.56
2022-10-14T04:36:15.601Z,66.28
2022-10-14T04:37:15.603Z,66.69
2022-10-14T04:38:17.505Z,63.68
2022-10-14T04:39:15.579Z,62.90
2022-10-14T04:40:15.593Z,63.80
2022-10-14T04:41:15.559Z,63.46
2022-10-14T04:42:15.549Z,61.90
2022-10-14T04:43:15.563Z,62.05
2022-10-14T04:44:15.538Z,66.10
2022-10-14T04:45:15.552Z,63.85
2022-10-14T04:46:15.554Z,66.00
2022-10-14T04:47:15.513Z,64.77
2022-10-14T04:48:15.513Z,66.48
2022-10-14T04:49:15.505Z,64.44
2022-10-14T04:50:15.553Z,65.72
2022-10-14T04:51:15.486Z,66.57
2022-10-14T04:52:15.481Z,66.89
2022-10-14T04:53:19.666Z,65.20
2022-10-14T04:54:16.462Z,65.15
2022-10-14T04:55:15.462Z,65.05
2022-10-14T04:56:16.441Z,64.41
2022-10-14T04:57:15.438Z,64.14
2022-10-14T04:58:15.422Z,64.91
2022-10-14T04:59:15.442Z,66.24
2022-10-14T05:00:15.420Z,67.61
2022-10-14T05:01:15.477Z,64.00
2022-10-14T05:02:15.506Z,65.68
2022-10-14T05:03:15.940Z,67.29
2022-10-14T05:04:15.378Z,65.40
2022-10-14T05:05:15.441Z,65.97
2022-10-14T05:06:15.369Z,64.27
2022-10-14T05:07:15.362Z,64.41
2022-10-14T05:08:15.367Z,63.31
2022-10-14T05:09:15.348Z,64.46
2022-10-14T05:10:15.348Z,66.12
2022-10-14T05:11:15.331Z,66.55
2022-10-14T05:12:15.308Z,66.72
2022-10-14T05:13:15.309Z,64.26
2022-10-14T05:14:15.300Z,65.61
2022-10-14T05:15:15.302Z,64.45
2022-10-14T05:16:15.295Z,67.97
2022-10-14T05:17:15.295Z,70.62
2022-10-14T05:18:15.278Z,75.92
2022-10-14T05:19:15.249Z,72.75
2022-10-14T05:20:15.261Z,71.86
2022-10-14T05:21:15.244Z,68.82
2022-10-14T05:22:15.226Z,69.39
2022-10-14T05:23:15.223Z,74.38
2022-10-14T05:24:15.214Z,74.39
2022-10-14T05:25:15.214Z,66.13
2022-10-14T05:26:15.213Z,68.39
2022-10-14T05:27:15.193Z,64.80
2022-10-14T05:28:15.262Z,67.37
2022-10-14T05:29:15.173Z,67.12
2022-10-14T05:30:15.182Z,68.02
2022-10-14T05:31:15.157Z,70.39
2022-10-14T05:32:15.171Z,68.19
2022-10-14T05:33:15.141Z,65.90
2022-10-14T05:34:15.132Z,67.00
2022-10-14T05:35:15.139Z,66.57
2022-10-14T05:36:15.122Z,66.12
2022-10-14T05:37:15.106Z,66.37
2022-10-14T05:38:15.116Z,67.67
2022-10-14T05:39:15.141Z,68.32
2022-10-14T05:40:15.088Z,66.97
2022-10-14T05:41:15.084Z,67.19
2022-10-14T05:42:15.057Z,67.03
2022-10-14T05:43:15.066Z,65.84
2022-10-14T05:44:15.050Z,64.72
2022-10-14T05:45:15.050Z,66.08
2022-10-14T05:46:15.039Z,64.97
2022-10-14T05:47:15.022Z,69.28
2022-10-14T05:48:16.038Z,67.18
2022-10-14T05:49:15.047Z,64.40
2022-10-14T05:50:15.030Z,65.06
2022-10-14T05:51:14.984Z,65.87
2022-10-14T05:52:14.983Z,64.22
2022-10-14T05:53:14.980Z,67.28
2022-10-14T05:54:14.965Z,66.11
2022-10-14T05:55:14.960Z,66.89
2022-10-14T05:56:14.950Z,66.49
2022-10-14T05:57:14.964Z,67.51
2022-10-14T05:58:14.943Z,67.32
2022-10-14T05:59:14.929Z,67.52
2022-10-14T06:00:14.940Z,67.97
2022-10-14T06:01:14.952Z,67.08
2022-10-14T06:02:14.940Z,67.09
2022-10-14T06:03:14.950Z,66.44
2022-10-14T06:04:14.923Z,65.06
2022-10-14T06:05:14.898Z,67.78
2022-10-14T06:06:14.863Z,65.89
2022-10-14T06:07:14.859Z,68.19
2022-10-14T06:08:14.884Z,67.08
2022-10-14T06:09:14.848Z,65.32
2022-10-14T06:10:14.855Z,64.21
2022-10-14T06:11:14.844Z,66.29
2022-10-14T06:12:14.832Z,65.05
2022-10-14T06:13:14.816Z,66.44
2022-10-14T06:14:14.803Z,67.36
2022-10-14T06:15:15.821Z,70.39
2022-10-14T06:16:14.794Z,66.89
2022-10-14T06:17:17.277Z,67.16
2022-10-14T06:18:14.768Z,68.37
2022-10-14T06:19:14.776Z,66.40
2022-10-14T06:20:14.746Z,65.76
2022-10-14T06:21:14.747Z,66.28
2022-10-14T06:22:14.755Z,67.19
2022-10-14T06:23:17.921Z,67.44
2022-10-14T06:24:15.831Z,66.66
2022-10-14T06:25:14.712Z,67.07
2022-10-14T06:26:14.711Z,67.06
2022-10-14T06:27:14.689Z,67.69
2022-10-14T06:28:14.778Z,64.12
2022-10-14T06:29:14.737Z,63.64
2022-10-14T06:30:14.671Z,66.43
2022-10-14T06:31:14.664Z,67.46
2022-10-14T06:32:14.649Z,64.36
2022-10-14T06:33:14.668Z,67.04
2022-10-14T06:34:14.639Z,66.89
2022-10-14T06:35:14.634Z,67.06
2022-10-14T06:36:14.641Z,69.97
2022-10-14T06:37:14.613Z,69.08
2022-10-14T06:38:14.614Z,70.74
2022-10-14T06:39:14.598Z,70.20
2022-10-14T06:40:14.582Z,68.96
2022-10-14T06:41:14.599Z,65.97
2022-10-14T06:42:15.563Z,64.11
2022-10-14T06:43:14.580Z,66.27
2022-10-14T06:44:14.550Z,65.24
2022-10-14T06:45:14.544Z,65.33
2022-10-14T06:46:14.547Z,65.50
2022-10-14T06:47:14.540Z,64.18
2022-10-14T06:48:14.516Z,65.75
2022-10-14T06:49:14.516Z,65.78
2022-10-14T06:50:14.513Z,68.31
2022-10-14T06:51:14.520Z,66.12
2022-10-14T06:52:15.944Z,69.35
2022-10-14T06:53:14.483Z,67.35
2022-10-14T06:54:15.489Z,65.94
2022-10-14T06:55:14.474Z,66.86
2022-10-14T06:56:14.457Z,66.35
2022-10-14T06:57:14.465Z,65.07
2022-10-14T06:58:14.444Z,65.10
2022-10-14T06:59:14.475Z,65.02
2022-10-14T07:00:14.426Z,67.44
2022-10-14T07:01:14.482Z,66.79
2022-10-14T07:02:14.461Z,65.10
2022-10-14T07:03:14.408Z,64.36
2022-10-14T07:04:14.405Z,66.50
2022-10-14T07:05:14.388Z,66.79
2022-10-14T07:06:14.382Z,65.71
2022-10-14T07:07:14.374Z,64.11
2022-10-14T07:08:15.584Z,64.52
2022-10-14T07:09:15.361Z,64.30
2022-10-14T07:10:14.336Z,64.30
2022-10-14T07:11:14.350Z,64.77
2022-10-14T07:12:14.323Z,64.05
2022-10-14T07:13:14.324Z,65.10
2022-10-14T07:14:14.386Z,63.21
2022-10-14T07:15:14.308Z,63.60
2022-10-14T07:16:14.305Z,63.56
2022-10-14T07:17:14.331Z,66.17
2022-10-14T07:18:14.347Z,66.74
2022-10-14T07:19:14.274Z,64.12
2022-10-14T07:20:14.268Z,65.85
2022-10-14T07:21:14.257Z,65.94
2022-10-14T07:22:14.982Z,66.92
2022-10-14T07:23:14.247Z,66.06
2022-10-14T07:24:15.092Z,65.32
2022-10-14T07:25:14.225Z,68.87
2022-10-14T07:26:14.231Z,66.96
2022-10-14T07:27:14.223Z,65.69
2022-10-14T07:28:14.308Z,65.77
2022-10-14T07:29:14.202Z,68.42
2022-10-14T07:30:16.779Z,68.44
2022-10-14T07:31:14.176Z,65.71
2022-10-14T07:32:14.168Z,66.75
2022-10-14T07:33:14.186Z,69.53
2022-10-14T07:34:14.160Z,65.84
2022-10-14T07:35:14.141Z,67.78
2022-10-14T07:36:16.082Z,70.28
2022-10-14T07:37:14.130Z,66.78
2022-10-14T07:38:14.136Z,66.66
2022-10-14T07:39:14.116Z,64.91
2022-10-14T07:40:14.114Z,64.17
2022-10-14T07:41:15.059Z,66.18
2022-10-14T07:42:14.114Z,67.56
2022-10-14T07:43:14.092Z,66.03
2022-10-14T07:44:14.989Z,64.14
2022-10-14T07:45:14.060Z,63.38
2022-10-14T07:46:14.577Z,62.08
2022-10-14T07:47:14.054Z,68.69
2022-10-14T07:48:17.051Z,66.29
2022-10-14T07:49:15.031Z,64.52
2022-10-14T07:50:14.030Z,65.36
2022-10-14T07:51:14.017Z,66.69
2022-10-14T07:52:14.007Z,65.66
2022-10-14T07:53:14.002Z,68.66
2022-10-14T07:54:13.991Z,69.29
2022-10-14T07:55:13.981Z,67.18
2022-10-14T07:56:13.981Z,66.44
2022-10-14T07:57:13.971Z,64.97
2022-10-14T07:58:13.969Z,66.13
2022-10-14T07:59:14.488Z,64.58
2022-10-14T08:00:13.948Z,66.75
2022-10-14T08:01:13.976Z,67.47
2022-10-14T08:02:13.940Z,67.98
2022-10-14T08:03:13.935Z,67.82
2022-10-14T08:04:13.939Z,66.02
2022-10-14T08:05:36.657Z,65.84
2022-10-14T08:06:15.895Z,64.99
2022-10-14T08:07:13.895Z,64.62
2022-10-14T08:08:13.890Z,65.01
2022-10-14T08:09:13.957Z,65.16
2022-10-14T08:10:13.872Z,64.97
2022-10-14T08:11:13.857Z,67.28
2022-10-14T08:12:13.845Z,66.56
2022-10-14T08:13:13.875Z,64.73
2022-10-14T08:14:13.847Z,66.31
2022-10-14T08:15:13.825Z,65.67
2022-10-14T08:16:13.822Z,65.42
2022-10-14T08:17:13.804Z,67.82
2022-10-14T08:18:13.804Z,66.12
2022-10-14T08:19:14.923Z,67.27
2022-10-14T08:20:14.859Z,67.93
2022-10-14T08:21:14.592Z,67.68
2022-10-14T08:22:13.773Z,63.03
2022-10-14T08:23:17.445Z,68.02
2022-10-14T08:24:15.842Z,65.61
2022-10-14T08:25:13.770Z,66.27
2022-10-14T08:26:13.724Z,67.48
2022-10-14T08:27:13.719Z,65.81
2022-10-14T08:28:13.713Z,66.70
2022-10-14T08:29:13.746Z,67.41
2022-10-14T08:30:13.710Z,68.19
2022-10-14T08:31:13.702Z,64.73
2022-10-14T08:32:13.729Z,67.08
2022-10-14T08:33:13.689Z,68.11
2022-10-14T08:34:13.668Z,64.69
2022-10-14T08:35:13.718Z,66.16
2022-10-14T08:36:14.110Z,68.79
2022-10-14T08:37:13.658Z,64.78
2022-10-14T08:38:14.583Z,64.38
2022-10-14T08:39:13.638Z,67.55
2022-10-14T08:40:13.632Z,63.94
2022-10-14T08:41:13.616Z,65.04
2022-10-14T08:42:13.618Z,64.42
2022-10-14T08:43:13.598Z,65.36
2022-10-14T08:44:13.596Z,64.80
2022-10-14T08:45:13.597Z,66.42
2022-10-14T08:46:13.679Z,63.27
2022-10-14T08:47:13.562Z,66.20
2022-10-14T08:48:13.577Z,63.38
2022-10-14T08:49:13.558Z,66.79
2022-10-14T08:50:13.547Z,67.24
2022-10-14T08:51:13.546Z,64.85
2022-10-14T08:52:13.529Z,67.50
2022-10-14T08:53:13.510Z,67.75
2022-10-14T08:54:13.528Z,66.49
2022-10-14T08:55:13.494Z,65.38
2022-10-14T08:56:14.562Z,64.34
2022-10-14T08:57:13.491Z,66.99
2022-10-14T08:58:13.609Z,64.63
2022-10-14T08:59:13.463Z,66.06
2022-10-14T09:00:13.519Z,66.82
2022-10-14T09:01:13.671Z,67.58
2022-10-14T09:02:13.456Z,65.99
2022-10-14T09:03:13.446Z,68.68
2022-10-14T09:04:13.517Z,65.95
2022-10-14T09:05:13.470Z,67.83
2022-10-14T09:06:13.405Z,67.03
2022-10-14T09:07:13.403Z,64.13
2022-10-14T09:08:13.387Z,65.50
2022-10-14T09:09:13.384Z,68.82
2022-10-14T09:10:14.016Z,67.88
2022-10-14T09:11:13.373Z,67.40
2022-10-14T09:12:13.365Z,65.56
2022-10-14T09:13:13.347Z,66.50
2022-10-14T09:14:13.341Z,66.51
2022-10-14T09:15:13.971Z,68.48
2022-10-14T09:16:13.326Z,66.79
2022-10-14T09:18:13.330Z,67.79
2022-10-14T09:19:13.310Z,68.81
2022-10-14T09:20:13.300Z,67.34
2022-10-14T09:21:22.730Z,66.94
2022-10-14T09:22:15.420Z,67.60
2022-10-14T09:23:13.268Z,68.50
2022-10-14T09:24:13.271Z,67.67
2022-10-14T09:25:13.325Z,64.65
2022-10-14T09:26:13.252Z,66.27
2022-10-14T09:27:16.090Z,68.18
2022-10-14T09:28:13.237Z,68.58
2022-10-14T09:29:13.229Z,65.91
2022-10-14T09:30:13.241Z,68.31
2022-10-14T09:31:13.215Z,66.04
2022-10-14T09:32:13.242Z,66.66
2022-10-14T09:33:13.223Z,66.23
2022-10-14T09:34:13.205Z,65.47
2022-10-14T09:35:13.196Z,67.48
2022-10-14T09:36:13.179Z,69.12
2022-10-14T09:37:13.254Z,67.45
2022-10-14T09:38:13.167Z,65.22
2022-10-14T09:39:13.159Z,64.37
2022-10-14T09:40:13.139Z,66.79
2022-10-14T09:41:13.144Z,66.21
2022-10-14T09:42:13.128Z,66.37
2022-10-14T09:43:13.113Z,65.21
2022-10-14T09:44:13.098Z,66.36
2022-10-14T09:45:13.332Z,65.26
2022-10-14T09:46:20.187Z,63.91
2022-10-14T09:47:13.225Z,64.79
2022-10-14T09:50:19.889Z,64.19
2022-10-14T09:51:20.917Z,65.41
2022-10-14T09:52:20.934Z,65.95
2022-10-14T09:53:21.015Z,66.53
2022-10-14T09:54:20.899Z,67.24
2022-10-14T09:55:20.894Z,65.63
2022-10-14T09:56:21.775Z,66.97
2022-10-14T09:57:21.140Z,67.11
2022-10-14T09:58:53.266Z,67.21
2022-10-14T09:59:20.865Z,67.13
2022-10-14T10:00:20.858Z,67.35
2022-10-14T10:01:20.849Z,64.62
2022-10-14T10:02:20.850Z,67.25
2022-10-14T10:03:20.825Z,72.85
2022-10-14T10:04:20.812Z,67.40
2022-10-14T10:05:20.806Z,65.77
2022-10-14T10:06:22.319Z,67.19
2022-10-14T10:07:21.198Z,67.17
2022-10-14T10:08:20.791Z,67.37
2022-10-14T10:09:21.745Z,67.08
2022-10-14T10:10:20.770Z,65.84
2022-10-14T10:11:20.773Z,68.12
2022-10-14T10:12:20.763Z,65.80
2022-10-14T10:13:20.765Z,66.27
2022-10-14T10:14:20.766Z,68.58
2022-10-14T10:15:21.749Z,73.43
2022-10-14T10:16:20.725Z,65.66
2022-10-14T10:17:21.087Z,66.62
2022-10-14T10:18:20.716Z,67.48
2022-10-14T10:19:20.709Z,67.27
2022-10-14T10:20:21.321Z,66.27
2022-10-14T10:21:20.687Z,67.04
2022-10-14T10:22:21.241Z,68.01
2022-10-14T10:23:21.254Z,68.30
2022-10-14T10:24:20.656Z,68.61
2022-10-14T10:25:20.654Z,66.46
2022-10-14T10:26:20.671Z,67.05
2022-10-14T10:27:21.057Z,69.75
2022-10-14T10:28:20.702Z,67.36
2022-10-14T10:29:21.620Z,67.97
2022-10-14T10:30:20.646Z,68.07
2022-10-14T10:31:22.426Z,67.89
2022-10-14T10:32:20.811Z,65.41
2022-10-14T10:33:20.674Z,67.52
2022-10-14T10:34:21.322Z,67.24
2022-10-14T10:35:20.591Z,67.62
2022-10-14T10:36:20.569Z,66.04
2022-10-14T10:37:20.951Z,67.07
2022-10-14T10:38:20.552Z,67.11
2022-10-14T10:39:20.537Z,67.24
2022-10-14T10:40:20.543Z,66.83
2022-10-14T10:41:21.324Z,65.13
2022-10-14T10:42:20.749Z,68.04
2022-10-14T10:43:20.503Z,66.21
2022-10-14T10:44:20.546Z,65.04
2022-10-14T10:45:20.548Z,64.74
2022-10-14T10:46:21.281Z,66.90
2022-10-14T10:47:20.521Z,63.83
2022-10-14T10:48:21.524Z,63.69
2022-10-14T10:49:22.380Z,65.44
2022-10-14T10:50:20.513Z,65.25
2022-10-14T10:53:27.612Z,65.45
2022-10-14T10:54:27.614Z,66.42
2022-10-14T10:55:27.586Z,66.89
2022-10-14T10:56:27.578Z,68.48
2022-10-14T10:57:27.574Z,68.83
2022-10-14T10:58:27.570Z,69.28
2022-10-14T10:59:29.152Z,67.33
2022-10-14T11:00:27.560Z,68.13
2022-10-14T11:01:27.571Z,67.35
2022-10-14T11:02:27.557Z,68.03
2022-10-14T11:03:27.534Z,68.32
2022-10-14T11:04:31.162Z,68.62
2022-10-14T11:05:27.511Z,67.05
2022-10-14T11:06:27.515Z,66.11
2022-10-14T11:07:28.217Z,65.78
2022-10-14T11:08:27.559Z,68.57
2022-10-14T11:09:27.518Z,68.90
2022-10-14T11:10:27.483Z,65.61
2022-10-14T11:11:27.479Z,67.12
2022-10-14T11:12:27.488Z,66.88
2022-10-14T11:13:29.486Z,68.08
2022-10-14T11:14:27.452Z,68.19
2022-10-14T11:15:27.440Z,67.78
2022-10-14T11:16:27.430Z,68.63
2022-10-14T11:17:27.462Z,69.56
2022-10-14T11:18:27.418Z,67.71
2022-10-14T11:19:27.400Z,69.55
2022-10-14T11:20:27.771Z,68.78
2022-10-14T11:21:27.388Z,69.91
2022-10-14T11:22:27.390Z,69.48
2022-10-14T11:23:27.389Z,69.41
2022-10-14T11:27:33.922Z,69.10
2022-10-14T11:28:33.936Z,66.44
2022-10-14T11:29:33.888Z,65.53
2022-10-14T11:30:33.876Z,66.02
2022-10-14T11:31:33.867Z,66.35
2022-10-14T11:32:33.864Z,65.42
2022-10-14T11:33:38.873Z,64.82
2022-10-14T11:34:34.877Z,69.56
2022-10-14T11:35:36.651Z,65.85
2022-10-14T11:36:34.933Z,66.44
2022-10-14T11:37:35.566Z,67.90
2022-10-14T11:39:35.806Z,68.35
2022-10-14T11:40:34.883Z,64.81
2022-10-14T11:41:34.870Z,67.99
2022-10-14T11:42:34.865Z,67.08
2022-10-14T11:43:34.874Z,65.55
2022-10-14T11:45:34.846Z,68.19
2022-10-14T11:46:34.840Z,68.48
2022-10-14T11:47:34.857Z,66.17
2022-10-14T11:48:34.817Z,67.53
2022-10-14T11:49:34.807Z,66.11
2022-10-14T11:50:34.829Z,65.94
2022-10-14T11:51:35.783Z,65.46
2022-10-14T11:52:35.812Z,64.94
2022-10-14T11:53:35.611Z,64.62
2022-10-14T11:54:34.779Z,65.28
2022-10-14T11:55:34.774Z,68.68
2022-10-14T11:56:34.793Z,67.61
2022-10-14T11:57:34.759Z,67.32
2022-10-14T11:58:36.560Z,65.93
2022-10-14T11:59:34.768Z,63.56
2022-10-14T12:00:34.732Z,66.48
2022-10-14T12:01:37.377Z,66.42
2022-10-14T12:02:34.784Z,68.92
2022-10-14T12:03:34.703Z,69.11
2022-10-14T12:04:34.696Z,68.08
2022-10-14T12:05:35.573Z,65.99
2022-10-14T12:06:34.676Z,66.40
2022-10-14T12:07:34.672Z,65.98
2022-10-14T12:08:35.699Z,66.69
2022-10-14T12:10:34.643Z,67.07
2022-10-14T12:11:34.643Z,65.74
2022-10-14T12:12:34.643Z,64.14
2022-10-14T12:13:34.610Z,64.90
2022-10-14T12:14:34.633Z,64.29
2022-10-14T12:15:35.568Z,65.59
2022-10-14T12:16:34.588Z,66.44
2022-10-14T12:17:34.598Z,65.23
2022-10-14T12:19:34.594Z,66.71
2022-10-14T12:20:34.563Z,68.59
2022-10-14T12:21:34.552Z,69.20
2022-10-14T12:22:34.558Z,65.13
2022-10-14T12:23:34.566Z,64.82
2022-10-14T12:24:34.544Z,67.58
2022-10-14T12:25:34.575Z,65.50
2022-10-14T12:26:34.513Z,65.52
2022-10-14T12:27:37.649Z,66.48
2022-10-14T12:28:34.515Z,65.85
2022-10-14T12:29:34.505Z,66.67
2022-10-14T12:30:34.483Z,67.15
2022-10-14T12:31:35.148Z,67.56
2022-10-14T12:32:34.476Z,66.09
2022-10-14T12:33:34.463Z,66.14
2022-10-14T12:34:34.472Z,64.97
2022-10-14T12:35:34.443Z,66.37
2022-10-14T12:36:37.461Z,68.07
2022-10-14T12:37:35.060Z,66.78
2022-10-14T12:38:35.425Z,68.12
2022-10-14T12:39:34.424Z,68.01
2022-10-14T12:40:34.404Z,65.94
2022-10-14T12:41:34.411Z,64.51
2022-10-14T12:42:34.911Z,67.75
2022-10-14T12:43:34.413Z,67.72
2022-10-14T12:44:34.393Z,64.35
2022-10-14T12:45:34.433Z,64.63
2022-10-14T12:46:34.422Z,66.21
2022-10-14T12:47:34.364Z,74.44
2022-10-14T12:48:34.346Z,67.18
2022-10-14T12:49:34.345Z,65.72
2022-10-14T12:50:34.340Z,65.82
2022-10-14T12:51:35.158Z,68.51
2022-10-14T12:52:34.318Z,67.70
2022-10-14T12:53:34.329Z,65.81
2022-10-14T12:54:34.307Z,66.88
2022-10-14T12:55:34.315Z,66.67
2022-10-14T12:56:34.287Z,68.29
2022-10-14T12:57:37.355Z,67.65
2022-10-14T12:58:36.277Z,65.78
2022-10-14T12:59:34.267Z,67.72
2022-10-14T13:00:34.263Z,69.58
2022-10-14T13:01:36.452Z,68.32
2022-10-14T13:02:34.293Z,66.15
2022-10-14T13:03:34.243Z,65.50
2022-10-14T13:04:34.228Z,66.81
2022-10-14T13:05:34.236Z,66.69
2022-10-14T13:06:34.216Z,69.49